LIPR/RMI METAR and TAF weather

Enter ICAO airport designator
Station Type Date Time Source
LIPR METAR 2022/01/25 05:50 UTC NOAA

LIPR 250550Z AUTO 30007KT 6000 BKN037/// 02/00 Q1034


Station Type Date Time Source
LIPR Decoded METAR 2022/01/25 05:50 UTC NOAA

Rimini, Italy (LIPR) 44-02N 012-37E 13M
Jan 25, 2022 - 12:50 AM EST / 2022.01.25 0550 UTC
Wind: from the WNW (300 degrees) at 8 MPH (7 KT):0
Visibility: 3 mile(s):0
Sky conditions: mostly cloudy
Temperature: 35 F (2 C)
Windchill: 28 F (-2 C):1
Dew Point: 32 F (0 C)
Relative Humidity: 86%
Pressure (altimeter): 30.53 in. Hg (1034 hPa)
ob: LIPR 250550Z AUTO 30007KT 6000 BKN037/// 02/00 Q1034
cycle: 6

Station Type Date Time Source
LIPR TAF 2022/01/25 06:21 UTC NOAA

TAF LIPR 250500Z 2506/2606 30008KT 6000 BKN030

Example: see airport list